Time;durP1;ratioP1;P1;durP2;ratioP2;P2;SDS_P1;SDS_P2;PMS_P1;PMS_P2;Temp;Humidity;BMP_temperature;BMP_pressure;BME280_temperature;BME280_humidity;BME280_pressure;Samples;Min_cycle;Max_cycle;Signal;HPM_P1;HPM_P2
2023/02/27 00:01:43;;;;;;;1.77;1.33;;;-2.80;99.90;;;;;;4986471;28;20207;-70
2023/02/27 00:04:10;;;;;;;1.10;1.00;;;-2.80;99.90;;;;;;4987801;28;20250;-70
2023/02/27 00:06:37;;;;;;;1.25;1.15;;;-2.80;99.90;;;;;;4987567;28;20206;-70
2023/02/27 00:09:05;;;;;;;4.10;1.13;;;-2.80;99.90;;;;;;4987721;28;20218;-70
2023/02/27 00:11:32;;;;;;;2.30;1.30;;;-2.70;99.90;;;;;;4988055;28;20203;-70
2023/02/27 00:13:58;;;;;;;1.73;1.42;;;-2.70;99.90;;;;;;4987723;28;20210;-70
2023/02/27 00:16:25;;;;;;;1.60;1.17;;;-2.60;99.90;;;;;;4988195;28;20207;-71
2023/02/27 00:18:52;;;;;;;1.20;1.10;;;-2.60;99.90;;;;;;4980070;28;20203;-70
2023/02/27 00:21:19;;;;;;;2.05;1.30;;;-2.60;99.90;;;;;;4988542;28;20215;-70
2023/02/27 00:23:46;;;;;;;4.45;1.40;;;-2.60;99.90;;;;;;4986861;28;20204;-70
2023/02/27 00:26:14;;;;;;;2.28;1.83;;;-2.60;99.90;;;;;;4988380;28;20297;-71
2023/02/27 00:28:40;;;;;;;4.22;2.05;;;-2.60;99.90;;;;;;4987865;28;20296;-70
2023/02/27 00:31:07;;;;;;;2.60;1.55;;;-2.60;99.90;;;;;;4987525;28;20207;-71
2023/02/27 00:33:34;;;;;;;1.23;1.13;;;-2.60;99.90;;;;;;4987375;28;20203;-71
2023/02/27 00:36:02;;;;;;;0.88;0.88;;;-2.60;99.90;;;;;;4988174;28;20219;-70
2023/02/27 00:38:29;;;;;;;1.30;1.20;;;-2.60;99.90;;;;;;4987812;28;20250;-71
2023/02/27 00:40:55;;;;;;;2.38;2.17;;;-2.60;99.90;;;;;;4987828;28;20683;-71
2023/02/27 00:43:23;;;;;;;1.95;1.48;;;-2.60;99.90;;;;;;4987142;28;20203;-71
2023/02/27 00:45:50;;;;;;;1.20;1.10;;;-2.60;99.90;;;;;;4987253;28;20572;-71
2023/02/27 00:48:17;;;;;;;3.65;1.20;;;-2.70;99.90;;;;;;4987849;28;20227;-71
2023/02/27 00:50:44;;;;;;;1.88;1.23;;;-2.70;99.90;;;;;;4987502;28;20623;-71
2023/02/27 00:53:10;;;;;;;1.00;0.90;;;-2.70;99.90;;;;;;4987048;28;20204;-71
2023/02/27 00:55:37;;;;;;;1.55;1.10;;;-2.70;99.90;;;;;;4987188;28;20199;-71
2023/02/27 00:58:04;;;;;;;1.30;1.15;;;-2.80;99.90;;;;;;4987804;28;20223;-71
2023/02/27 01:00:32;;;;;;;2.17;1.50;;;-2.80;99.90;;;;;;4987417;28;20203;-70
2023/02/27 01:02:59;;;;;;;1.27;1.10;;;-2.80;99.90;;;;;;4986956;28;20615;-70
2023/02/27 01:05:25;;;;;;;1.63;1.52;;;-2.80;99.90;;;;;;4987605;28;20223;-70
2023/02/27 01:07:52;;;;;;;1.30;1.20;;;-2.70;99.90;;;;;;4987901;28;20230;-70
2023/02/27 01:10:19;;;;;;;1.10;0.90;;;-2.70;99.90;;;;;;4987443;28;20210;-70
2023/02/27 01:12:46;;;;;;;1.40;1.30;;;-2.70;99.90;;;;;;4987134;28;20199;-70
2023/02/27 01:15:12;;;;;;;2.35;1.10;;;-2.60;99.90;;;;;;4988152;28;20204;-71
2023/02/27 01:17:41;;;;;;;2.20;1.50;;;-2.60;99.90;;;;;;4987568;28;20239;-70
2023/02/27 01:20:09;;;;;;;1.90;1.30;;;-2.60;99.90;;;;;;4988133;28;20640;-70
2023/02/27 01:22:36;;;;;;;1.30;1.20;;;-2.60;99.90;;;;;;4987419;28;20199;-70
2023/02/27 01:25:03;;;;;;;1.30;1.10;;;-2.70;99.90;;;;;;4987599;28;20566;-70
2023/02/27 01:27:30;;;;;;;1.63;1.30;;;-2.70;99.90;;;;;;4987878;28;20227;-70
2023/02/27 01:29:57;;;;;;;5.03;1.42;;;-2.80;99.90;;;;;;4987827;28;20207;-70
2023/02/27 01:32:24;;;;;;;1.17;1.08;;;-2.80;99.90;;;;;;4987745;28;20200;-70
2023/02/27 01:34:52;;;;;;;1.60;1.35;;;-2.80;99.90;;;;;;4987344;28;20207;-70
2023/02/27 01:37:19;;;;;;;1.13;1.02;;;-2.90;99.90;;;;;;4987761;28;20612;-70
2023/02/27 01:39:45;;;;;;;1.40;1.30;;;-2.90;99.90;;;;;;4987463;28;20210;-70
2023/02/27 01:42:20;;;;;;;2.28;1.30;;;-2.90;99.90;;;;;;4987727;28;20721;-70
2023/02/27 01:45:18;;;;;;;2.00;1.30;;;-2.90;99.90;;;;;;4987282;28;20258;-70
2023/02/27 01:47:48;;;;;;;1.50;1.38;;;-2.90;99.90;;;;;;4987281;28;20231;-70
2023/02/27 01:50:18;;;;;;;1.50;1.00;;;-2.90;99.90;;;;;;4987661;28;20203;-70
2023/02/27 01:52:47;;;;;;;1.33;1.23;;;-3.00;99.90;;;;;;4987164;28;20207;-70
2023/02/27 01:55:15;;;;;;;2.22;1.40;;;-2.90;99.90;;;;;;4987693;28;20621;-70
2023/02/27 01:57:45;;;;;;;1.50;1.40;;;-3.00;99.90;;;;;;4987154;28;20223;-70
2023/02/27 02:00:13;;;;;;;1.70;1.60;;;-3.00;99.90;;;;;;4987509;28;20204;-70
2023/02/27 02:02:44;;;;;;;1.38;1.27;;;-3.00;99.90;;;;;;4986907;28;20200;-70
2023/02/27 02:05:12;;;;;;;3.55;1.40;;;-3.00;99.90;;;;;;4987587;28;20334;-70
2023/02/27 02:07:41;;;;;;;2.70;1.30;;;-3.10;99.90;;;;;;4987019;28;20223;-69
2023/02/27 02:10:12;;;;;;;1.63;1.50;;;-3.10;99.90;;;;;;4987662;28;20597;-70
2023/02/27 02:12:39;;;;;;;2.15;1.65;;;-3.10;99.90;;;;;;4986960;28;20207;-70
2023/02/27 02:15:07;;;;;;;2.72;1.17;;;-3.00;99.90;;;;;;4987066;28;20196;-71
2023/02/27 02:17:43;;;;;;;1.30;1.00;;;-3.10;99.90;;;;;;4987174;28;20242;-69
2023/02/27 02:21:03;;;;;;;1.45;1.27;;;-3.10;99.90;;;;;;4987292;28;20263;-69
2023/02/27 02:24:13;;;;;;;1.10;1.00;;;-3.10;99.90;;;;;;4948514;28;20239;-70
2023/02/27 02:26:56;;;;;;;1.77;1.30;;;-3.10;99.90;;;;;;4990318;28;20270;-70
2023/02/27 02:30:04;;;;;;;1.05;0.95;;;-3.10;99.90;;;;;;4990774;28;20585;-69
2023/02/27 02:32:51;;;;;;;1.80;1.17;;;-3.20;99.90;;;;;;4990276;28;20210;-71
2023/02/27 02:35:53;;;;;;;1.58;1.40;;;-3.10;99.90;;;;;;4990441;28;20659;-69
2023/02/27 02:38:48;;;;;;;1.33;1.23;;;-3.20;99.90;;;;;;4989021;28;20225;-71
2023/02/27 02:41:23;;;;;;;1.33;1.10;;;-3.10;99.90;;;;;;4990409;28;20249;-72
2023/02/27 02:44:00;;;;;;;3.60;1.52;;;-3.20;99.90;;;;;;4989529;28;20195;-70
2023/02/27 02:46:35;;;;;;;1.52;1.38;;;-3.20;99.90;;;;;;4990403;28;20215;-71
2023/02/27 02:49:10;;;;;;;1.25;1.15;;;-3.20;99.90;;;;;;4990472;28;20222;-70
2023/02/27 02:51:43;;;;;;;1.63;1.30;;;-3.20;99.90;;;;;;4990345;28;20207;-70
2023/02/27 02:54:16;;;;;;;3.47;2.10;;;-3.10;99.90;;;;;;4989917;28;20199;-70
2023/02/27 02:56:47;;;;;;;2.38;1.52;;;-3.10;99.90;;;;;;4989879;28;20820;-70
2023/02/27 02:59:17;;;;;;;2.17;1.23;;;-3.20;99.90;;;;;;4990235;28;20685;-70
2023/02/27 03:01:50;;;;;;;1.60;1.30;;;-3.20;99.90;;;;;;4989777;28;20689;-70
2023/02/27 03:04:22;;;;;;;1.90;1.35;;;-3.20;99.90;;;;;;4989841;28;20203;-69
2023/02/27 03:06:56;;;;;;;1.65;1.30;;;-3.20;99.90;;;;;;4989821;28;20223;-70
2023/02/27 03:09:31;;;;;;;3.75;1.65;;;-3.20;99.90;;;;;;4990405;28;20207;-70
2023/02/27 03:11:59;;;;;;;2.58;1.80;;;-3.20;99.90;;;;;;4989989;28;20210;-70
2023/02/27 03:14:30;;;;;;;1.50;1.40;;;-3.20;99.90;;;;;;4989764;28;20704;-70
2023/02/27 03:17:02;;;;;;;1.52;1.42;;;-3.20;99.90;;;;;;4989468;28;20224;-70
2023/02/27 03:19:33;;;;;;;1.40;1.20;;;-3.20;99.90;;;;;;4990468;28;20210;-70
2023/02/27 03:22:05;;;;;;;3.13;1.85;;;-3.20;99.90;;;;;;4995273;28;20634;-70
2023/02/27 03:24:36;;;;;;;2.08;1.35;;;-3.20;99.90;;;;;;4994373;28;20233;-70
2023/02/27 03:27:05;;;;;;;1.90;1.70;;;-3.20;99.90;;;;;;4992909;28;20235;-70
2023/02/27 03:29:37;;;;;;;1.80;1.70;;;-3.20;99.90;;;;;;4992856;28;20221;-70
2023/02/27 03:32:11;;;;;;;2.25;1.23;;;-3.20;99.90;;;;;;4992015;28;20207;-70
2023/02/27 03:34:42;;;;;;;2.58;2.35;;;-3.20;99.90;;;;;;4991890;28;20207;-70
2023/02/27 03:37:20;;;;;;;7.15;1.73;;;-3.20;99.90;;;;;;4993793;28;20223;-70
2023/02/27 03:39:50;;;;;;;4.57;1.85;;;-3.20;99.90;;;;;;4992994;28;20199;-70
2023/02/27 03:42:26;;;;;;;1.77;1.67;;;-3.30;99.90;;;;;;4993434;28;20206;-70
2023/02/27 03:44:58;;;;;;;2.20;1.70;;;-3.30;99.90;;;;;;4991963;28;20214;-70
2023/02/27 03:47:25;;;;;;;1.70;1.60;;;-3.30;99.90;;;;;;4991982;28;20226;-70
2023/02/27 03:49:51;;;;;;;2.60;1.40;;;-3.30;99.90;;;;;;4992894;28;20195;-70
2023/02/27 03:52:19;;;;;;;1.85;1.75;;;-3.30;99.90;;;;;;4992985;28;20200;-70
2023/02/27 03:54:53;;;;;;;2.35;1.85;;;-3.30;99.90;;;;;;4992135;28;20195;-71
2023/02/27 03:57:20;;;;;;;4.60;1.30;;;-3.30;99.90;;;;;;4992951;28;20218;-70
2023/02/27 03:59:47;;;;;;;1.60;1.50;;;-3.30;99.90;;;;;;4991807;28;20199;-70
2023/02/27 04:02:15;;;;;;;4.78;1.80;;;-3.30;99.90;;;;;;4991817;28;20210;-70
2023/02/27 04:04:42;;;;;;;1.52;1.30;;;-3.30;99.90;;;;;;4991530;28;20210;-70
2023/02/27 04:07:24;;;;;;;1.40;1.30;;;-3.30;99.90;;;;;;4992731;28;20215;-71
2023/02/27 04:10:07;;;;;;;2.55;1.40;;;-3.30;99.90;;;;;;4992700;28;20210;-70
2023/02/27 04:12:50;;;;;;;1.83;1.70;;;-3.30;99.90;;;;;;4991394;28;20236;-70
2023/02/27 04:15:29;;;;;;;3.67;1.48;;;-3.40;99.90;;;;;;4992246;28;20195;-70
2023/02/27 04:18:07;;;;;;;1.80;1.55;;;-3.40;99.90;;;;;;4992869;28;20231;-70
2023/02/27 04:20:41;;;;;;;2.17;1.35;;;-3.30;99.90;;;;;;4995883;28;20206;-69
2023/02/27 04:23:12;;;;;;;2.45;1.92;;;-3.30;99.90;;;;;;4993955;28;20201;-69
2023/02/27 04:25:55;;;;;;;1.75;1.65;;;-3.40;99.90;;;;;;4992483;28;20219;-70
2023/02/27 04:28:31;;;;;;;2.90;2.28;;;-3.40;99.90;;;;;;4991584;28;20246;-69
2023/02/27 04:31:07;;;;;;;2.10;1.90;;;-3.40;99.90;;;;;;4989332;28;20203;-70
2023/02/27 04:33:43;;;;;;;2.50;1.60;;;-3.40;99.90;;;;;;4988526;28;20625;-70
2023/02/27 04:36:16;;;;;;;4.63;1.95;;;-3.40;99.90;;;;;;4988147;28;20207;-70
2023/02/27 04:38:47;;;;;;;1.58;1.48;;;-3.40;99.90;;;;;;4989578;28;20219;-70
2023/02/27 04:41:21;;;;;;;3.15;1.80;;;-3.40;99.90;;;;;;4988724;28;20206;-70
2023/02/27 04:43:49;;;;;;;2.25;1.92;;;-3.40;99.90;;;;;;4989789;28;20204;-70
2023/02/27 04:46:19;;;;;;;2.60;1.90;;;-3.40;99.90;;;;;;4985349;28;20219;-70
2023/02/27 04:48:53;;;;;;;2.50;1.98;;;-3.40;99.90;;;;;;4986003;28;20242;-70
2023/02/27 04:51:25;;;;;;;1.90;1.73;;;-3.40;99.90;;;;;;4985785;28;20227;-70
2023/02/27 04:53:56;;;;;;;2.80;1.63;;;-3.40;99.90;;;;;;4985754;28;20211;-70
2023/02/27 04:56:30;;;;;;;2.20;2.00;;;-3.40;99.90;;;;;;4988449;28;20703;-70
2023/02/27 04:59:00;;;;;;;2.60;1.25;;;-3.40;99.90;;;;;;4986264;28;20205;-70
2023/02/27 05:01:34;;;;;;;2.67;1.75;;;-3.40;99.90;;;;;;4986263;28;20203;-70
2023/02/27 05:04:02;;;;;;;3.50;1.83;;;-3.40;99.90;;;;;;4985968;28;20211;-70
2023/02/27 05:06:34;;;;;;;2.58;1.95;;;-3.40;99.90;;;;;;4987291;28;20219;-70
2023/02/27 05:09:11;;;;;;;2.13;1.90;;;-3.40;99.90;;;;;;4985132;28;20214;-70
2023/02/27 05:11:44;;;;;;;1.55;1.45;;;-3.40;99.90;;;;;;4983632;28;20199;-70
2023/02/27 05:14:15;;;;;;;1.63;1.50;;;-3.40;99.90;;;;;;4986959;28;20237;-70
2023/02/27 05:16:49;;;;;;;2.35;1.58;;;-3.30;99.90;;;;;;4985710;28;20192;-70
2023/02/27 05:19:16;;;;;;;2.70;1.73;;;-3.40;99.90;;;;;;4984364;28;20208;-69
2023/02/27 05:21:49;;;;;;;2.20;2.00;;;-3.40;99.90;;;;;;4982372;28;20460;-69
2023/02/27 05:24:24;;;;;;;2.70;2.15;;;-3.40;99.90;;;;;;4986861;28;20285;-69
2023/02/27 05:27:08;;;;;;;2.17;1.77;;;-3.40;99.90;;;;;;4986628;28;20245;-70
2023/02/27 05:29:42;;;;;;;2.28;1.90;;;-3.40;99.90;;;;;;4981402;28;20282;-69
2023/02/27 05:32:18;;;;;;;1.73;1.33;;;-3.40;99.90;;;;;;4986948;28;20658;-69
2023/02/27 05:34:52;;;;;;;3.20;2.05;;;-3.40;99.90;;;;;;4987405;28;20203;-68
2023/02/27 05:37:24;;;;;;;1.95;1.77;;;-3.40;99.90;;;;;;4987616;28;20305;-68
2023/02/27 05:39:53;;;;;;;3.47;1.65;;;-3.40;99.90;;;;;;4987129;28;20206;-70
2023/02/27 05:42:27;;;;;;;2.38;1.67;;;-3.40;99.90;;;;;;4986050;28;20247;-69
2023/02/27 05:44:58;;;;;;;1.73;1.30;;;-3.50;99.90;;;;;;4986860;28;20221;-69
2023/02/27 05:47:29;;;;;;;3.00;1.85;;;-3.50;99.90;;;;;;4987223;28;20219;-69
2023/02/27 05:50:01;;;;;;;3.35;2.22;;;-3.40;99.90;;;;;;4987118;28;20215;-70
2023/02/27 05:52:30;;;;;;;2.08;1.90;;;-3.40;99.90;;;;;;4987169;28;20682;-70
2023/02/27 05:55:01;;;;;;;2.13;1.92;;;-3.40;99.90;;;;;;4986634;28;20203;-69
2023/02/27 05:57:33;;;;;;;2.30;1.30;;;-3.40;99.90;;;;;;4990060;28;20211;-69
2023/02/27 06:00:04;;;;;;;1.83;1.30;;;-3.50;99.90;;;;;;4990369;28;20203;-69
2023/02/27 06:02:31;;;;;;;3.42;1.70;;;-3.50;99.90;;;;;;4990607;28;20199;-69
2023/02/27 06:04:58;;;;;;;1.90;1.80;;;-3.50;99.90;;;;;;4990169;28;20211;-69
2023/02/27 06:07:25;;;;;;;2.25;1.75;;;-3.40;99.90;;;;;;4990515;28;20215;-69
2023/02/27 06:09:52;;;;;;;1.80;1.50;;;-3.50;99.90;;;;;;4990515;28;20207;-70
2023/02/27 06:12:19;;;;;;;1.50;1.40;;;-3.50;99.90;;;;;;4990523;28;20572;-69
2023/02/27 06:14:47;;;;;;;2.65;2.05;;;-3.50;99.90;;;;;;4990437;28;20720;-69
2023/02/27 06:17:13;;;;;;;2.60;1.40;;;-3.50;99.90;;;;;;4990456;28;20211;-69
2023/02/27 06:19:40;;;;;;;2.60;1.70;;;-3.50;99.90;;;;;;4990559;28;20258;-70
2023/02/27 06:22:07;;;;;;;2.00;1.80;;;-3.50;99.90;;;;;;4990163;28;20211;-68
2023/02/27 06:24:34;;;;;;;2.00;1.38;;;-3.50;99.90;;;;;;4990228;28;20207;-70
2023/02/27 06:27:00;;;;;;;2.00;1.50;;;-3.50;99.90;;;;;;4989835;28;20230;-70
2023/02/27 06:29:27;;;;;;;2.42;1.70;;;-3.50;99.90;;;;;;4990663;28;20195;-70
2023/02/27 06:31:55;;;;;;;2.42;2.22;;;-3.40;99.90;;;;;;4989960;28;20218;-70
2023/02/27 06:34:22;;;;;;;2.22;1.50;;;-3.50;99.90;;;;;;4989826;28;20199;-70
2023/02/27 06:36:49;;;;;;;4.03;2.80;;;-3.40;99.90;;;;;;4989793;28;20219;-69
2023/02/27 06:39:15;;;;;;;6.43;1.83;;;-3.40;99.90;;;;;;4989721;28;20394;-70
2023/02/27 06:41:42;;;;;;;2.17;1.73;;;-3.40;99.90;;;;;;4990095;28;20562;-70
2023/02/27 06:44:09;;;;;;;2.38;2.17;;;-3.40;99.90;;;;;;4989614;28;20199;-69
2023/02/27 06:46:36;;;;;;;2.50;2.10;;;-3.40;99.90;;;;;;4990182;28;20219;-68
2023/02/27 06:49:04;;;;;;;2.25;2.03;;;-3.40;99.90;;;;;;4989512;28;20211;-68
2023/02/27 06:51:31;;;;;;;3.50;2.22;;;-3.30;99.90;;;;;;4990430;28;20199;-68
2023/02/27 06:53:58;;;;;;;3.42;2.00;;;-3.30;99.90;;;;;;4989682;28;20210;-69
2023/02/27 06:56:25;;;;;;;1.70;1.52;;;-3.20;99.90;;;;;;4990426;28;20678;-67
2023/02/27 06:58:51;;;;;;;1.85;1.75;;;-3.20;99.90;;;;;;4990530;28;20223;-69
2023/02/27 07:01:18;;;;;;;1.60;1.40;;;-3.20;99.90;;;;;;4990466;28;20199;-69
2023/02/27 07:03:45;;;;;;;1.88;1.73;;;-3.10;99.90;;;;;;4990075;28;20203;-70
2023/02/27 07:06:13;;;;;;;4.03;2.20;;;-3.10;99.90;;;;;;4989984;28;20223;-69
2023/02/27 07:08:39;;;;;;;3.63;1.77;;;-3.00;99.90;;;;;;4989608;28;20234;-70
2023/02/27 07:11:06;;;;;;;1.55;1.45;;;-3.00;99.90;;;;;;4989769;28;20211;-69
2023/02/27 07:13:33;;;;;;;2.40;2.20;;;-2.90;99.90;;;;;;4989462;28;20210;-69
2023/02/27 07:15:59;;;;;;;4.13;2.00;;;-2.90;99.90;;;;;;4989505;28;20210;-69
2023/02/27 07:18:26;;;;;;;1.50;1.40;;;-2.90;99.90;;;;;;4990024;28;20238;-69
2023/02/27 07:20:54;;;;;;;8.02;2.65;;;-2.70;99.90;;;;;;4989902;28;20210;-69
2023/02/27 07:23:22;;;;;;;2.63;2.10;;;-2.30;99.90;;;;;;4989396;28;20325;-69
2023/02/27 07:25:49;;;;;;;3.05;2.15;;;-1.60;99.90;;;;;;4989768;28;20250;-69
2023/02/27 07:28:17;;;;;;;2.03;1.63;;;-0.90;99.90;;;;;;4989595;28;20219;-69
2023/02/27 07:30:44;;;;;;;2.53;2.17;;;-0.40;99.90;;;;;;4989677;28;20286;-69
2023/02/27 07:33:11;;;;;;;3.20;2.45;;;0.60;99.90;;;;;;4988878;28;20212;-69
2023/02/27 07:35:38;;;;;;;2.30;2.10;;;1.40;99.90;;;;;;4989604;28;20210;-70
2023/02/27 07:38:04;;;;;;;2.90;2.60;;;2.10;99.90;;;;;;4989306;28;20226;-69
2023/02/27 07:40:32;;;;;;;2.05;1.85;;;2.10;99.90;;;;;;4989597;28;20692;-73
2023/02/27 07:42:59;;;;;;;2.42;1.98;;;2.40;99.90;;;;;;4988604;28;20203;-69
2023/02/27 07:45:26;;;;;;;2.00;1.80;;;2.70;99.20;;;;;;4989285;28;20199;-69
2023/02/27 07:47:52;;;;;;;1.83;1.73;;;3.20;98.80;;;;;;4986767;28;20231;-69
2023/02/27 07:50:19;;;;;;;3.25;2.28;;;3.80;97.80;;;;;;4984374;28;20226;-69
2023/02/27 07:52:46;;;;;;;4.03;2.60;;;4.30;97.40;;;;;;4988427;28;20209;-70
2023/02/27 07:55:13;;;;;;;1.98;1.70;;;5.00;96.30;;;;;;5007672;28;20207;-69
2023/02/27 07:57:41;;;;;;;1.77;1.60;;;5.10;95.80;;;;;;4980863;28;20221;-70
2023/02/27 08:00:10;;;;;;;2.20;1.90;;;5.40;95.20;;;;;;4988533;28;20626;-69
2023/02/27 08:02:36;;;;;;;1.90;1.63;;;5.40;94.60;;;;;;4988401;28;20199;-70
2023/02/27 08:05:03;;;;;;;2.15;1.77;;;5.30;94.60;;;;;;4988504;28;20208;-69
2023/02/27 08:07:30;;;;;;;2.60;2.35;;;5.50;94.30;;;;;;4988710;28;20222;-70
2023/02/27 08:09:57;;;;;;;2.95;1.73;;;5.90;94.20;;;;;;4988801;28;20208;-67
2023/02/27 08:12:23;;;;;;;3.15;1.92;;;6.70;93.90;;;;;;4988631;28;20576;-69
2023/02/27 08:14:51;;;;;;;2.25;2.05;;;7.20;93.10;;;;;;4988545;28;20249;-69
2023/02/27 08:17:18;;;;;;;3.05;2.22;;;7.70;92.20;;;;;;4980370;28;20215;-69
2023/02/27 08:19:45;;;;;;;2.20;2.00;;;8.20;91.90;;;;;;4988915;28;20208;-69
2023/02/27 08:22:12;;;;;;;2.35;2.15;;;8.60;91.50;;;;;;4988766;28;20207;-69
2023/02/27 08:24:39;;;;;;;2.20;2.00;;;9.00;90.60;;;;;;4988384;28;20195;-69
2023/02/27 08:27:06;;;;;;;1.95;1.85;;;8.90;90.00;;;;;;4987727;28;20230;-69
2023/02/27 08:29:33;;;;;;;3.15;1.95;;;8.60;90.20;;;;;;4988341;28;20666;-70
2023/02/27 08:32:01;;;;;;;3.83;1.85;;;9.10;90.20;;;;;;4987984;28;20207;-69
2023/02/27 08:34:29;;;;;;;3.05;2.30;;;10.00;88.70;;;;;;4988056;28;20223;-69
2023/02/27 08:36:55;;;;;;;2.30;2.08;;;10.50;86.10;;;;;;4988184;28;20597;-69
2023/02/27 08:39:23;;;;;;;2.00;1.70;;;10.60;85.70;;;;;;4988006;28;20580;-69
2023/02/27 08:41:56;;;;;;;2.55;2.10;;;10.30;83.50;;;;;;4988321;28;20195;-69
2023/02/27 08:44:22;;;;;;;3.15;1.98;;;9.60;84.20;;;;;;4988052;28;20207;-70
2023/02/27 08:46:49;;;;;;;2.00;1.77;;;9.30;85.10;;;;;;4987909;28;20223;-69
2023/02/27 08:49:19;;;;;;;2.10;1.88;;;9.20;84.20;;;;;;4987617;28;20199;-69
2023/02/27 08:51:46;;;;;;;1.55;1.45;;;9.10;85.70;;;;;;4988010;28;20298;-69
2023/02/27 08:54:12;;;;;;;3.95;1.92;;;9.00;85.10;;;;;;4987472;28;20207;-69
2023/02/27 08:56:39;;;;;;;2.15;1.90;;;9.10;84.80;;;;;;4987922;28;20557;-69
2023/02/27 08:59:06;;;;;;;2.00;1.90;;;9.20;84.30;;;;;;4987936;28;20219;-70
2023/02/27 09:01:34;;;;;;;2.75;1.77;;;9.60;83.20;;;;;;4988178;28;20199;-69
2023/02/27 09:04:02;;;;;;;2.50;2.20;;;9.50;83.10;;;;;;4986936;28;20199;-69
2023/02/27 09:06:31;;;;;;;2.00;1.90;;;9.90;82.70;;;;;;4987977;28;20639;-69
2023/02/27 09:08:58;;;;;;;2.20;1.85;;;10.60;80.10;;;;;;4987929;28;20678;-69
2023/02/27 09:11:25;;;;;;;2.83;2.35;;;10.70;78.70;;;;;;4987934;28;20203;-69
2023/02/27 09:13:53;;;;;;;1.98;1.77;;;10.80;79.30;;;;;;4987397;28;20577;-69
2023/02/27 09:16:20;;;;;;;3.65;2.05;;;11.50;78.50;;;;;;4987391;28;20206;-69
2023/02/27 09:18:48;;;;;;;2.05;1.85;;;11.90;76.60;;;;;;4987767;28;20212;-69
2023/02/27 09:21:15;;;;;;;2.10;1.90;;;12.90;75.70;;;;;;4987557;28;20575;-69
2023/02/27 09:23:43;;;;;;;1.88;1.77;;;12.90;73.50;;;;;;4987550;28;20543;-69
2023/02/27 09:26:10;;;;;;;1.60;1.50;;;13.20;73.30;;;;;;4987266;28;20211;-69
2023/02/27 09:28:38;;;;;;;2.08;1.80;;;12.90;73.10;;;;;;4987636;28;20237;-69
2023/02/27 09:31:07;;;;;;;2.55;1.80;;;12.90;72.50;;;;;;4988091;28;20218;-69
2023/02/27 09:33:34;;;;;;;1.70;1.58;;;12.50;71.70;;;;;;4990831;28;20199;-69
2023/02/27 09:36:01;;;;;;;2.13;1.88;;;12.70;71.60;;;;;;4990895;28;20582;-69
2023/02/27 09:38:27;;;;;;;1.80;1.70;;;12.90;71.10;;;;;;4991161;28;20226;-69
2023/02/27 09:40:58;;;;;;;3.10;1.95;;;13.30;69.70;;;;;;4990582;28;20203;-69
2023/02/27 09:43:30;;;;;;;3.30;2.17;;;13.80;71.20;;;;;;4990540;28;20264;-69
2023/02/27 09:45:59;;;;;;;1.83;1.70;;;14.70;69.70;;;;;;4991008;28;20884;-69
2023/02/27 09:48:32;;;;;;;2.10;1.73;;;14.60;65.40;;;;;;4991155;28;20223;-69
2023/02/27 09:50:59;;;;;;;2.10;1.70;;;14.60;66.40;;;;;;4990833;28;20470;-69
2023/02/27 09:53:30;;;;;;;2.15;1.80;;;13.90;67.30;;;;;;4990172;28;20214;-69
2023/02/27 09:56:05;;;;;;;3.42;1.73;;;14.20;66.10;;;;;;4990607;28;20234;-69
2023/02/27 09:58:42;;;;;;;2.25;1.60;;;13.80;65.50;;;;;;4991058;28;20250;-69
2023/02/27 10:01:15;;;;;;;2.25;1.30;;;13.40;66.50;;;;;;4990448;28;20654;-69
2023/02/27 10:04:17;;;;;;;2.30;1.70;;;13.60;65.70;;;;;;4990603;28;20207;-69
2023/02/27 10:06:48;;;;;;;3.50;1.75;;;13.80;66.00;;;;;;4981881;28;20202;-69
2023/02/27 10:09:31;;;;;;;2.40;2.10;;;14.20;63.60;;;;;;4990299;28;20210;-69
2023/02/27 10:12:12;;;;;;;4.03;1.70;;;14.90;63.50;;;;;;4990748;28;20466;-69
2023/02/27 10:14:43;;;;;;;2.50;2.20;;;15.90;64.70;;;;;;4990266;28;20470;-69
2023/02/27 10:17:18;;;;;;;2.50;1.90;;;16.30;62.50;;;;;;4975772;28;20502;-70
2023/02/27 10:19:48;;;;;;;2.10;1.90;;;15.80;61.40;;;;;;4985105;28;20462;-69
2023/02/27 10:22:21;;;;;;;1.70;1.60;;;16.00;60.30;;;;;;4990515;28;20511;-69
2023/02/27 10:24:53;;;;;;;1.53;1.43;;;16.00;60.10;;;;;;4989959;28;20561;-69
2023/02/27 10:27:22;;;;;;;1.80;1.70;;;16.40;60.30;;;;;;4989956;28;20866;-70
2023/02/27 10:29:51;;;;;;;2.50;1.97;;;16.80;59.40;;;;;;4990259;28;20496;-68
2023/02/27 10:32:22;;;;;;;3.07;1.73;;;16.90;58.50;;;;;;4989657;28;20493;-68
2023/02/27 10:34:54;;;;;;;1.93;1.60;;;17.20;58.00;;;;;;4990094;28;20462;-69
2023/02/27 10:37:26;;;;;;;2.17;1.80;;;16.90;58.90;;;;;;4989997;28;20482;-69
2023/02/27 10:39:59;;;;;;;1.97;1.50;;;16.60;57.10;;;;;;4989543;28;20462;-70
2023/02/27 10:42:33;;;;;;;2.90;1.67;;;16.40;58.20;;;;;;4988452;28;20462;-70
2023/02/27 10:45:02;;;;;;;1.97;1.40;;;16.10;57.20;;;;;;4989988;28;20490;-70
2023/02/27 10:47:29;;;;;;;3.20;1.60;;;15.50;57.30;;;;;;4989294;28;20572;-70
2023/02/27 10:49:59;;;;;;;1.70;1.50;;;16.20;59.80;;;;;;4970074;28;20470;-69
2023/02/27 10:52:27;;;;;;;2.43;1.90;;;16.00;57.80;;;;;;4979123;28;20466;-69
2023/02/27 10:54:53;;;;;;;1.30;1.20;;;15.70;57.60;;;;;;4987448;28;20833;-68
2023/02/27 10:57:32;;;;;;;2.07;1.50;;;14.90;57.90;;;;;;4988904;28;20480;-69
2023/02/27 11:00:04;;;;;;;2.37;1.80;;;14.20;58.70;;;;;;4989640;28;20964;-69
2023/02/27 11:02:36;;;;;;;2.45;1.42;;;13.80;58.10;;;;;;4989040;28;20461;-69
2023/02/27 11:05:05;;;;;;;1.50;1.38;;;12.70;59.00;;;;;;4989375;28;20219;-70
2023/02/27 11:07:34;;;;;;;2.35;1.55;;;11.70;59.30;;;;;;4980610;28;20250;-69
2023/02/27 11:10:16;;;;;;;1.92;1.60;;;10.20;60.70;;;;;;4989877;28;20257;-69
2023/02/27 11:12:57;;;;;;;1.70;1.60;;;9.20;64.20;;;;;;4983453;28;20200;-68
2023/02/27 11:15:29;;;;;;;1.60;1.50;;;9.50;66.00;;;;;;4989048;28;20211;-69
2023/02/27 11:18:19;;;;;;;2.03;1.83;;;10.70;64.60;;;;;;4989115;28;20610;-69
2023/02/27 11:20:49;;;;;;;1.33;1.23;;;10.50;61.60;;;;;;4989409;28;20207;-69
2023/02/27 11:23:18;;;;;;;2.00;1.80;;;8.90;64.70;;;;;;4988848;28;20208;-70
2023/02/27 11:25:46;;;;;;;1.40;1.30;;;9.10;66.80;;;;;;4989460;28;20226;-70
2023/02/27 11:28:21;;;;;;;2.38;1.60;;;9.60;65.10;;;;;;4988652;28;20352;-69
2023/02/27 11:30:57;;;;;;;2.33;1.40;;;9.50;64.30;;;;;;4988521;28;20199;-69
2023/02/27 11:33:25;;;;;;;1.63;1.33;;;8.70;66.10;;;;;;4988371;28;20206;-69
2023/02/27 11:35:53;;;;;;;2.78;1.70;;;8.70;66.70;;;;;;4989264;28;20215;-69
2023/02/27 11:38:23;;;;;;;1.48;1.38;;;8.30;66.90;;;;;;4988374;28;20215;-69
2023/02/27 11:40:53;;;;;;;1.85;1.55;;;7.60;68.60;;;;;;4989044;28;20200;-69
2023/02/27 11:43:24;;;;;;;2.65;1.63;;;8.10;68.30;;;;;;4987995;28;20214;-69
2023/02/27 11:45:54;;;;;;;2.50;1.80;;;7.90;68.30;;;;;;4988971;28;20234;-69
2023/02/27 11:48:24;;;;;;;1.75;1.65;;;7.40;68.60;;;;;;4988568;28;20712;-69
2023/02/27 11:51:24;;;;;;;1.70;1.60;;;6.90;70.50;;;;;;4989453;28;20583;-69
2023/02/27 11:54:14;;;;;;;1.85;1.63;;;7.00;71.60;;;;;;4982611;28;20382;-69
2023/02/27 11:56:44;;;;;;;1.50;1.40;;;8.50;68.60;;;;;;4988733;28;20207;-69
2023/02/27 11:59:22;;;;;;;2.13;1.92;;;10.10;66.70;;;;;;4988820;28;20214;-69
2023/02/27 12:01:53;;;;;;;6.30;1.70;;;11.70;63.70;;;;;;4988422;28;20199;-70
2023/02/27 12:04:25;;;;;;;2.40;2.05;;;11.20;63.30;;;;;;4988262;28;20267;-69
2023/02/27 12:06:57;;;;;;;3.03;1.70;;;9.60;65.10;;;;;;4975663;28;20231;-69
2023/02/27 12:09:42;;;;;;;2.08;1.67;;;8.10;68.20;;;;;;4987269;28;20226;-69
2023/02/27 12:12:18;;;;;;;1.75;1.63;;;7.00;70.10;;;;;;4988889;28;20205;-69
2023/02/27 12:14:52;;;;;;;3.63;2.00;;;6.60;73.30;;;;;;4981342;28;20206;-69
2023/02/27 12:17:25;;;;;;;4.40;1.38;;;6.20;72.50;;;;;;4983576;28;20264;-69
2023/02/27 12:20:06;;;;;;;2.05;1.65;;;6.70;73.60;;;;;;4988421;28;20214;-69
2023/02/27 12:22:37;;;;;;;3.90;1.60;;;6.60;72.00;;;;;;4988252;28;20639;-69
2023/02/27 12:25:06;;;;;;;2.28;1.50;;;6.30;72.30;;;;;;4988262;28;20298;-69
2023/02/27 12:27:43;;;;;;;1.52;1.42;;;6.20;72.90;;;;;;4986353;28;20242;-69
2023/02/27 12:30:19;;;;;;;3.38;1.85;;;5.70;71.40;;;;;;4988129;28;20206;-69
2023/02/27 12:32:51;;;;;;;2.63;1.83;;;5.20;72.80;;;;;;4988393;28;20608;-69
2023/02/27 12:35:21;;;;;;;1.50;1.40;;;5.10;74.40;;;;;;4988037;28;20570;-69
2023/02/27 12:37:48;;;;;;;3.17;1.90;;;5.10;74.40;;;;;;4988579;28;20218;-69
2023/02/27 12:40:17;;;;;;;4.93;1.65;;;5.00;74.80;;;;;;4988199;28;20256;-69
2023/02/27 12:42:57;;;;;;;1.92;1.67;;;4.90;75.10;;;;;;4988381;28;20316;-69
2023/02/27 12:45:55;;;;;;;2.20;1.50;;;4.80;75.70;;;;;;4987403;28;20199;-69
2023/02/27 12:48:37;;;;;;;2.60;1.75;;;4.60;76.40;;;;;;4987690;28;20234;-69
2023/02/27 12:51:16;;;;;;;1.48;1.35;;;4.30;76.60;;;;;;4988293;28;20203;-69
2023/02/27 12:53:59;;;;;;;1.75;1.65;;;4.20;77.10;;;;;;4987984;28;20253;-69
2023/02/27 12:56:36;;;;;;;1.98;1.63;;;4.50;78.70;;;;;;4987369;28;20234;-69
2023/02/27 12:59:09;;;;;;;3.85;1.65;;;5.80;76.60;;;;;;4988145;28;20226;-69
2023/02/27 13:01:47;;;;;;;2.78;1.77;;;6.20;74.30;;;;;;4980052;28;20204;-69
2023/02/27 13:04:23;;;;;;;2.72;1.90;;;6.00;74.30;;;;;;4987581;28;20207;-69
2023/02/27 13:06:53;;;;;;;1.70;1.60;;;5.60;74.80;;;;;;4986821;28;20214;-69
2023/02/27 13:09:29;;;;;;;2.20;1.85;;;5.30;76.70;;;;;;4987155;28;20301;-69
2023/02/27 13:12:03;;;;;;;2.13;1.92;;;5.10;75.90;;;;;;4987951;28;20207;-69